Terminal Aerodrome Forecast
Issued by NWS Shreveport, LA

Home | Current Version | Previous Version | Text Only | Print | Product List | Glossary On
Versions: 1 2 3 4 5 6 7 8 9 10 11 12 13 14 15 16 17 18 19 20 21 22 23 24 25
000
FTUS44 KSHV 220500
TAFMLU
TAF
KMLU 220526Z 2206/2306 00000KT P6SM SKC
      TEMPO 2206/2210 4SM BR
     FM221000 00000KT 4SM BR SKC
     FM221300 VRB03KT P6SM SKC
     FM221600 04005KT P6SM SCT030
     FM222000 07006KT P6SM SCT045
     FM230000 VRB03KT P6SM SCT050=

USA.gov is the U.S. government's official web portal to all federal, state and local government web resources and services.